Energy Center, Louisiana
Current Conditions -  °F | °C
As of 1:53 PM on Thursday 29 Jan 2015 (Local Time) from KLFT Reporting Station
Clear Clear  
Wind Chill: 23°   Ceiling: Unl
Heat Index: 23°   Visibility: 10mi
Dew Point: 14°   Wind: 8mph
Humidity: 57%   Direction: 250°WSW
Pressure: 30.2"   Gusts: 20mph
Location:  30.2247°N, 92.0198°W
Report Text: KLFT 291953Z 25007G17KT 10SM CLR 23/14 A3020 RMK AO2 SLP226 T02280139
Loading
Personal Weather Stations






























Interactive Weather Map New forecast layout! Learn more

10-Day Weather Forecast

Advertisements
Track Severe Weather on mobile